Time;durP1;ratioP1;P1;durP2;ratioP2;P2;SDS_P1;SDS_P2;PMS_P1;PMS_P2;Temp;Humidity;BMP_temperature;BMP_pressure;BME280_temperature;BME280_humidity;BME280_pressure;Samples;Min_cycle;Max_cycle;Signal;HPM_P1;HPM_P2
2022/12/15 00:40:58;;;;;;;;;;;;;;;7.84;44.61;98068.72;4512591;31;33764;-82
2022/12/15 00:43:29;;;;;;;;;;;;;;;8.19;44.05;98080.97;4498943;31;33295;-85
2022/12/15 00:48:43;;;;;;;;;;;;;;;8.28;43.86;98086.16;4502627;31;34098;-89
2022/12/15 00:51:11;;;;;;;;;;;;;;;6.87;46.95;98067.09;4501802;31;34554;-89
2022/12/15 01:21:21;;;;;;;;;;;;;;;8.26;44.71;98078.41;4500282;31;35182;-87
2022/12/15 01:23:51;;;;;;;;;;;;;;;8.47;43.46;98076.78;4506914;31;33997;-86
2022/12/15 01:26:18;;;;;;;;;;;;;;;8.20;43.92;98073.19;4514511;31;33424;-88
2022/12/15 01:28:46;;;;;;;;;;;;;;;8.40;43.71;98069.88;4502517;31;34911;-88
2022/12/15 01:31:13;;;;;;;;;;;;;;;8.67;42.88;98069.94;4500857;31;35171;-85
2022/12/15 01:33:43;;;;;;;;;;;;;;;8.19;43.57;98066.31;4507305;31;34978;-89
2022/12/15 01:36:11;;;;;;;;;;;;;;;7.94;44.54;98064.47;4514177;31;33062;-88
2022/12/15 01:38:38;;;;;;;;;;;;;;;8.39;43.52;98068.16;4498092;31;34614;-86
2022/12/15 01:41:06;;;;;;;;;;;;;;;8.11;44.02;98068.00;4498150;31;33546;-85
2022/12/15 01:43:35;;;;;;;;;;;;;;;8.29;43.83;98074.94;4505910;31;34952;-87
2022/12/15 01:46:03;;;;;;;;;;;;;;;8.62;43.31;98076.84;4504361;31;33425;-83
2022/12/15 01:48:36;;;;;;;;;;;;;;;7.84;44.70;98062.69;4499485;31;34981;-86
2022/12/15 01:51:22;;;;;;;;;;;;;;;8.10;44.34;98068.84;4499684;31;34402;-87
2022/12/15 01:53:49;;;;;;;;;;;;;;;7.87;44.74;98063.56;4506943;31;34394;-87
2022/12/15 01:56:16;;;;;;;;;;;;;;;8.30;43.97;98074.13;4514462;31;33857;-87
2022/12/15 01:58:44;;;;;;;;;;;;;;;6.72;47.42;98070.38;4498740;31;33671;-86
2022/12/15 02:01:11;;;;;;;;;;;;;;;7.00;47.16;98075.78;4497310;31;34815;-87
2022/12/15 02:03:41;;;;;;;;;;;;;;;7.65;45.74;98077.19;4502071;31;34773;-88
2022/12/15 02:06:09;;;;;;;;;;;;;;;7.40;46.00;98081.31;4507336;31;33422;-87
2022/12/15 02:08:36;;;;;;;;;;;;;;;7.85;45.22;98072.16;4497257;31;33904;-84
2022/12/15 02:11:07;;;;;;;;;;;;;;;8.07;44.73;98071.44;4497748;31;34275;-86
2022/12/15 02:13:49;;;;;;;;;;;;;;;7.66;45.93;98058.28;4506830;31;34214;-87
2022/12/15 02:16:18;;;;;;;;;;;;;;;7.76;45.44;98070.38;4508689;31;33828;-86
2022/12/15 02:18:53;;;;;;;;;;;;;;;7.60;45.64;98084.88;4498224;31;35223;-86
2022/12/15 02:21:31;;;;;;;;;;;;;;;8.40;44.18;98085.38;4498882;31;35358;-87
2022/12/15 02:24:03;;;;;;;;;;;;;;;8.47;44.05;98087.13;4499767;31;34701;-87
2022/12/15 02:26:43;;;;;;;;;;;;;;;8.85;43.42;98091.53;4484158;31;33402;-87
2022/12/15 02:29:26;;;;;;;;;;;;;;;9.05;43.07;98087.25;4507660;31;34121;-88
2022/12/15 02:31:54;;;;;;;;;;;;;;;9.17;42.81;98079.53;4503355;31;34584;-87
2022/12/15 02:34:22;;;;;;;;;;;;;;;8.43;43.83;98085.38;4497379;31;32655;-85
2022/12/15 02:36:59;;;;;;;;;;;;;;;7.79;44.98;98081.56;4508916;31;33749;-88
2022/12/15 02:39:26;;;;;;;;;;;;;;;8.15;44.56;98079.22;4497583;31;34189;-88
2022/12/15 02:41:54;;;;;;;;;;;;;;;8.17;44.19;98074.91;4503581;31;34294;-86
2022/12/15 02:44:22;;;;;;;;;;;;;;;8.55;43.59;98074.22;4507491;31;34355;-86
2022/12/15 02:47:08;;;;;;;;;;;;;;;8.75;43.51;98086.38;4516371;31;33591;-87
2022/12/15 02:49:37;;;;;;;;;;;;;;;9.04;43.18;98085.53;4516340;31;34951;-86
2022/12/15 02:52:17;;;;;;;;;;;;;;;9.30;42.73;98087.31;4510535;31;34490;-86
2022/12/15 02:55:07;;;;;;;;;;;;;;;9.12;43.06;98098.47;4505348;31;33180;-87
2022/12/15 02:57:37;;;;;;;;;;;;;;;9.03;42.89;98089.00;4503115;31;33214;-87
2022/12/15 03:00:06;;;;;;;;;;;;;;;8.34;44.18;98088.78;4506256;31;32760;-86
2022/12/15 03:02:33;;;;;;;;;;;;;;;9.17;42.42;98079.53;4514940;31;34150;-89
2022/12/15 03:05:01;;;;;;;;;;;;;;;9.17;42.20;98087.31;4504699;31;34030;-89
2022/12/15 03:07:28;;;;;;;;;;;;;;;9.28;42.13;98084.72;4498965;31;33319;-87
2022/12/15 03:09:56;;;;;;;;;;;;;;;8.74;43.26;98086.34;4513729;31;34624;-87
2022/12/15 03:12:24;;;;;;;;;;;;;;;9.20;42.25;98086.41;4515866;31;34327;-83
2022/12/15 03:14:53;;;;;;;;;;;;;;;8.68;43.07;98084.62;4515229;31;33739;-85
2022/12/15 03:17:20;;;;;;;;;;;;;;;9.30;42.11;98093.34;4515664;31;32954;-85
2022/12/15 03:19:47;;;;;;;;;;;;;;;9.52;41.70;98080.41;4513835;31;33794;-87
2022/12/15 03:22:16;;;;;;;;;;;;;;;9.71;41.23;98076.94;4509470;31;34387;-85
2022/12/15 03:24:44;;;;;;;;;;;;;;;9.85;40.77;98087.25;4503337;31;35177;-83
2022/12/15 03:27:11;;;;;;;;;;;;;;;9.79;40.99;98079.50;4512723;31;33565;-86
2022/12/15 03:29:38;;;;;;;;;;;;;;;9.87;40.75;98082.94;4511762;31;32234;-85
2022/12/15 03:32:05;;;;;;;;;;;;;;;9.92;40.50;98099.31;4512245;31;35165;-83
2022/12/15 03:34:34;;;;;;;;;;;;;;;9.46;40.92;98095.06;4511949;31;34292;-87
2022/12/15 03:37:01;;;;;;;;;;;;;;;9.64;40.66;98094.19;4500295;31;33405;-87
2022/12/15 03:39:28;;;;;;;;;;;;;;;9.38;40.88;98101.09;4511209;31;34278;-87
2022/12/15 03:41:56;;;;;;;;;;;;;;;9.44;40.76;98095.94;4513983;31;34401;-83
2022/12/15 03:44:23;;;;;;;;;;;;;;;9.39;40.53;98088.16;4500478;31;34554;-84
2022/12/15 03:46:50;;;;;;;;;;;;;;;8.84;41.58;98092.41;4510250;31;33323;-85
2022/12/15 03:49:17;;;;;;;;;;;;;;;9.13;41.14;98093.34;4509004;31;33951;-87
2022/12/15 03:51:45;;;;;;;;;;;;;;;9.47;40.41;98095.91;4513713;31;34202;-87
2022/12/15 03:54:12;;;;;;;;;;;;;;;9.64;39.86;98104.53;4506610;31;34956;-86
2022/12/15 03:56:40;;;;;;;;;;;;;;;9.15;40.65;98112.28;4513229;31;33590;-88
2022/12/15 03:59:08;;;;;;;;;;;;;;;9.15;40.64;98114.00;4515803;31;34166;-86
2022/12/15 04:01:35;;;;;;;;;;;;;;;8.95;41.08;98111.37;4515740;31;34270;-87
2022/12/15 04:04:03;;;;;;;;;;;;;;;9.16;40.70;98111.41;4515721;31;34001;-88
2022/12/15 04:06:31;;;;;;;;;;;;;;;8.65;41.69;98110.44;4515353;31;33312;-86
2022/12/15 04:08:58;;;;;;;;;;;;;;;8.89;41.35;98106.19;4515724;31;34696;-88
2022/12/15 04:11:25;;;;;;;;;;;;;;;9.19;40.76;98119.19;4515312;31;34266;-87
2022/12/15 04:13:52;;;;;;;;;;;;;;;9.30;40.63;98123.50;4515664;31;34244;-87
2022/12/15 04:16:20;;;;;;;;;;;;;;;9.08;41.22;98130.38;4515267;31;33846;-88
2022/12/15 04:21:52;;;;;;;;;;;;;;;9.35;41.05;98137.31;4515749;31;34585;-89
2022/12/15 05:33:37;;;;;;;;;;;;;;;9.00;42.16;98238.94;4499513;31;32871;-86
2022/12/15 05:36:05;;;;;;;;;;;;;;;9.15;41.85;98233.81;4493793;31;34667;-87
2022/12/15 05:38:32;;;;;;;;;;;;;;;9.03;42.11;98231.19;4488852;31;34134;-86
2022/12/15 05:40:59;;;;;;;;;;;;;;;8.88;42.14;98239.75;4462023;31;33988;-84
2022/12/15 05:43:26;;;;;;;;;;;;;;;9.02;41.87;98238.09;4493155;31;33392;-85
2022/12/15 05:45:54;;;;;;;;;;;;;;;9.15;41.62;98246.75;4483646;32;34294;-87
2022/12/15 05:48:22;;;;;;;;;;;;;;;9.27;41.34;98246.78;4502321;31;34214;-86
2022/12/15 05:50:49;;;;;;;;;;;;;;;9.41;41.08;98256.31;4510288;31;34244;-87
2022/12/15 05:53:16;;;;;;;;;;;;;;;9.45;40.73;98265.81;4492992;31;34034;-87
2022/12/15 05:55:43;;;;;;;;;;;;;;;9.22;41.25;98269.19;4483433;32;33949;-87
2022/12/15 05:58:11;;;;;;;;;;;;;;;9.43;41.04;98272.69;4494286;31;34317;-83
2022/12/15 06:00:38;;;;;;;;;;;;;;;8.98;41.87;98277.72;4499040;31;32867;-86
2022/12/15 06:03:06;;;;;;;;;;;;;;;9.33;41.29;98289.06;4497820;31;33876;-83
2022/12/15 06:05:33;;;;;;;;;;;;;;;8.98;41.99;98292.38;4498555;31;34018;-86
2022/12/15 06:08:03;;;;;;;;;;;;;;;8.61;42.86;98299.88;4498470;31;34471;-87
2022/12/15 06:10:30;;;;;;;;;;;;;;;8.92;42.32;98313.84;4497674;31;35174;-87
2022/12/15 06:12:57;;;;;;;;;;;;;;;9.11;42.07;98320.00;4498648;31;33346;-85
2022/12/15 06:15:24;;;;;;;;;;;;;;;9.10;42.22;98318.28;4498269;31;33857;-87
2022/12/15 06:17:54;;;;;;;;;;;;;;;9.22;41.95;98318.31;4485295;31;35111;-87
2022/12/15 06:20:21;;;;;;;;;;;;;;;9.25;41.97;98320.06;4497176;31;34843;-87
2022/12/15 06:22:49;;;;;;;;;;;;;;;7.81;45.15;98321.56;4484117;31;34007;-87
2022/12/15 06:25:16;;;;;;;;;;;;;;;7.84;44.63;98315.56;4482886;32;34127;-86
2022/12/15 06:27:43;;;;;;;;;;;;;;;7.97;44.72;98322.59;4491916;31;34012;-84
2022/12/15 06:30:11;;;;;;;;;;;;;;;8.47;43.88;98327.34;4484031;31;35075;-84
2022/12/15 06:32:39;;;;;;;;;;;;;;;8.81;43.27;98323.28;4483298;32;34233;-83
2022/12/15 06:35:06;;;;;;;;;;;;;;;8.60;43.08;98318.84;4483303;32;33785;-84
2022/12/15 06:37:33;;;;;;;;;;;;;;;8.43;43.56;98323.00;4482894;32;35201;-84
2022/12/15 06:40:01;;;;;;;;;;;;;;;8.04;44.85;98321.78;4490565;31;34479;-84
2022/12/15 06:42:28;;;;;;;;;;;;;;;7.74;45.53;98325.78;4473553;31;33383;-82
2022/12/15 06:44:55;;;;;;;;;;;;;;;8.01;44.77;98334.66;4482976;32;34299;-84
2022/12/15 06:47:22;;;;;;;;;;;;;;;7.82;45.40;98343.06;4482775;31;34074;-85
2022/12/15 06:49:50;;;;;;;;;;;;;;;8.01;45.18;98347.56;4491456;31;33747;-84
2022/12/15 06:52:17;;;;;;;;;;;;;;;8.39;44.63;98339.34;4498411;31;33534;-83
2022/12/15 06:54:44;;;;;;;;;;;;;;;7.78;45.49;98355.06;4498562;31;35059;-84
2022/12/15 06:57:11;;;;;;;;;;;;;;;7.30;47.09;98369.97;4498473;31;34083;-84
2022/12/15 06:59:39;;;;;;;;;;;;;;;7.26;46.66;98383.69;4498767;31;33768;-83
2022/12/15 07:02:12;;;;;;;;;;;;;;;7.80;45.94;98382.63;4498314;31;33389;-83
2022/12/15 07:04:39;;;;;;;;;;;;;;;8.40;44.71;98377.22;4496916;31;33458;-83
2022/12/15 07:07:08;;;;;;;;;;;;;;;8.65;44.29;98393.78;4498437;31;33921;-83
2022/12/15 07:09:35;;;;;;;;;;;;;;;8.50;44.69;98402.28;4498751;31;33680;-84
2022/12/15 07:12:02;;;;;;;;;;;;;;;8.14;45.08;98406.19;4498643;31;32867;-84
2022/12/15 07:14:30;;;;;;;;;;;;;;;8.52;44.52;98411.78;4498355;31;33823;-83
2022/12/15 07:16:57;;;;;;;;;;;;;;;7.24;46.85;98408.59;4498410;31;34416;-84
2022/12/15 07:19:25;;;;;;;;;;;;;;;7.23;47.99;98406.81;4498101;31;33585;-83
2022/12/15 07:21:52;;;;;;;;;;;;;;;7.76;46.68;98406.66;4498298;31;34060;-83
2022/12/15 07:24:19;;;;;;;;;;;;;;;7.44;47.15;98415.72;4498279;31;33858;-83
2022/12/15 07:26:47;;;;;;;;;;;;;;;7.63;47.01;98411.66;4498091;31;34117;-83
2022/12/15 07:29:15;;;;;;;;;;;;;;;6.89;48.82;98414.94;4500374;31;34248;-83
2022/12/15 07:31:49;;;;;;;;;;;;;;;6.50;49.98;98421.19;4500902;31;33035;-83
2022/12/15 07:34:17;;;;;;;;;;;;;;;6.94;49.13;98418.47;4500417;31;34935;-83
2022/12/15 07:36:44;;;;;;;;;;;;;;;7.55;47.60;98429.63;4500697;31;34510;-83
2022/12/15 07:39:18;;;;;;;;;;;;;;;7.94;46.74;98431.81;4500305;31;35109;-83
2022/12/15 07:41:45;;;;;;;;;;;;;;;7.08;48.85;98437.53;4500377;31;33392;-83
2022/12/15 07:44:15;;;;;;;;;;;;;;;5.91;52.02;98444.97;4500638;31;34770;-83
2022/12/15 07:46:45;;;;;;;;;;;;;;;5.68;53.15;98448.75;4500442;31;34396;-83
2022/12/15 07:49:12;;;;;;;;;;;;;;;4.59;55.81;98434.34;4500096;31;34827;-84
2022/12/15 07:51:42;;;;;;;;;;;;;;;5.78;53.14;98428.41;4500499;31;34054;-83
2022/12/15 07:54:10;;;;;;;;;;;;;;;6.85;50.38;98431.19;4500281;31;33833;-83
2022/12/15 07:56:37;;;;;;;;;;;;;;;7.75;48.18;98446.22;4500675;31;34536;-84
2022/12/15 07:59:06;;;;;;;;;;;;;;;7.87;47.53;98445.47;4499024;31;34028;-83
2022/12/15 08:01:34;;;;;;;;;;;;;;;7.94;47.33;98452.44;4500570;31;33102;-83
2022/12/15 08:04:01;;;;;;;;;;;;;;;7.46;48.54;98451.00;4500025;31;35060;-84
2022/12/15 08:06:29;;;;;;;;;;;;;;;7.28;49.02;98456.78;4498900;31;34506;-83
2022/12/15 08:08:56;;;;;;;;;;;;;;;7.55;48.54;98455.41;4500350;31;33858;-83
2022/12/15 08:11:24;;;;;;;;;;;;;;;7.55;48.11;98465.72;4499079;31;33393;-83
2022/12/15 08:13:51;;;;;;;;;;;;;;;6.12;51.88;98465.12;4500492;31;33242;-83
2022/12/15 08:16:30;;;;;;;;;;;;;;;5.17;54.86;98481.09;4500223;31;35152;-83
2022/12/15 08:18:57;;;;;;;;;;;;;;;6.09;52.69;98480.50;4500326;31;34217;-83
2022/12/15 08:21:24;;;;;;;;;;;;;;;5.22;54.28;98483.75;4500447;31;33319;-83
2022/12/15 08:23:52;;;;;;;;;;;;;;;6.36;52.29;98484.44;4498853;31;33860;-83
2022/12/15 08:26:19;;;;;;;;;;;;;;;6.58;51.73;98483.97;4500025;31;34334;-83
2022/12/15 08:28:54;;;;;;;;;;;;;;;6.56;51.42;98491.69;4500009;31;34655;-83
2022/12/15 08:31:22;;;;;;;;;;;;;;;5.77;54.11;98490.13;4499721;31;34414;-83
2022/12/15 08:33:49;;;;;;;;;;;;;;;5.98;53.16;98481.97;4499985;31;33854;-83
2022/12/15 08:36:17;;;;;;;;;;;;;;;5.94;52.95;98487.91;4500274;31;34011;-83
2022/12/15 08:38:45;;;;;;;;;;;;;;;6.73;51.17;98485.94;4498525;31;34215;-83
2022/12/15 08:41:17;;;;;;;;;;;;;;;6.43;52.04;98491.44;4498344;31;33246;-84
2022/12/15 08:43:45;;;;;;;;;;;;;;;6.89;50.89;98487.94;4473327;31;791895;-83
2022/12/15 08:46:19;;;;;;;;;;;;;;;7.43;49.64;98491.34;4499825;31;34071;-83
2022/12/15 08:48:47;;;;;;;;;;;;;;;7.14;50.24;98509.81;4499799;31;33900;-83
2022/12/15 08:51:15;;;;;;;;;;;;;;;7.58;49.25;98514.78;4500028;31;33105;-83
2022/12/15 08:53:42;;;;;;;;;;;;;;;7.39;49.57;98507.63;4499918;31;34586;-83
2022/12/15 08:56:13;;;;;;;;;;;;;;;6.83;50.70;98517.06;4499715;31;35212;-83
2022/12/15 08:58:40;;;;;;;;;;;;;;;6.71;51.50;98511.69;4499767;31;33839;-83
2022/12/15 09:01:09;;;;;;;;;;;;;;;7.57;49.15;98518.19;4499662;31;32938;-83
2022/12/15 09:06:24;;;;;;;;;;;;;;;8.67;47.03;98513.53;4499799;31;35332;-83
2022/12/15 09:08:53;;;;;;;;;;;;;;;7.75;48.99;98508.13;4498395;31;33505;-84
2022/12/15 09:11:20;;;;;;;;;;;;;;;8.77;46.54;98513.63;4499691;31;33886;-83
2022/12/15 09:13:47;;;;;;;;;;;;;;;7.72;48.72;98505.50;4499903;31;34200;-83
2022/12/15 09:16:15;;;;;;;;;;;;;;;7.82;48.67;98503.06;4499597;31;34332;-83
2022/12/15 09:18:43;;;;;;;;;;;;;;;8.00;48.39;98503.31;4499944;31;34456;-83
2022/12/15 09:21:11;;;;;;;;;;;;;;;7.74;49.16;98506.41;4499745;31;34159;-83
2022/12/15 09:23:39;;;;;;;;;;;;;;;6.62;51.60;98503.78;4499715;31;33278;-83
2022/12/15 09:26:09;;;;;;;;;;;;;;;6.21;53.49;98498.78;4501336;31;33712;-83
2022/12/15 09:28:37;;;;;;;;;;;;;;;6.20;53.02;98497.00;4499470;31;35033;-82
2022/12/15 09:31:06;;;;;;;;;;;;;;;7.50;50.19;98508.63;4499559;31;33443;-83
2022/12/15 09:33:33;;;;;;;;;;;;;;;8.03;49.24;98496.47;4499839;31;33632;-83
2022/12/15 09:36:01;;;;;;;;;;;;;;;6.98;51.19;98500.13;4499325;31;34498;-83
2022/12/15 09:38:29;;;;;;;;;;;;;;;7.41;50.49;98495.62;4499611;31;33852;-83
2022/12/15 09:40:56;;;;;;;;;;;;;;;8.45;48.10;98499.53;4498230;31;32932;-83
2022/12/15 09:43:23;;;;;;;;;;;;;;;7.70;49.60;98499.47;4499524;31;33822;-83
2022/12/15 09:46:27;;;;;;;;;;;;;;;8.41;47.73;98505.50;4498452;31;35109;-83
2022/12/15 09:48:54;;;;;;;;;;;;;;;9.07;46.27;98516.47;4499256;31;33758;-83
2022/12/15 09:51:24;;;;;;;;;;;;;;;9.11;46.36;98521.69;4496898;31;33377;-83
2022/12/15 09:53:51;;;;;;;;;;;;;;;8.66;47.15;98517.81;4498130;31;34031;-83
2022/12/15 09:56:27;;;;;;;;;;;;;;;8.13;48.58;98520.66;4499361;31;35194;-82
2022/12/15 09:58:56;;;;;;;;;;;;;;;7.44;50.25;98529.19;4497856;31;33750;-83
2022/12/15 10:01:28;;;;;;;;;;;;;;;6.58;52.58;98532.91;4497851;31;33315;-82
2022/12/15 10:03:55;;;;;;;;;;;;;;;7.00;51.82;98539.66;4498015;31;34090;-82
2022/12/15 10:06:24;;;;;;;;;;;;;;;6.89;52.17;98536.88;4499143;31;34984;-82
2022/12/15 10:09:03;;;;;;;;;;;;;;;5.72;55.59;98538.88;4499273;31;34006;-83
2022/12/15 10:11:36;;;;;;;;;;;;;;;5.89;55.60;98528.09;4497835;31;33057;-82
2022/12/15 10:14:22;;;;;;;;;;;;;;;6.89;52.58;98529.16;4498954;31;35001;-83
2022/12/15 10:16:52;;;;;;;;;;;;;;;7.06;52.18;98534.59;4498999;31;34128;-83
2022/12/15 10:19:45;;;;;;;;;;;;;;;7.53;51.15;98540.50;4497621;31;33538;-83
2022/12/15 10:22:26;;;;;;;;;;;;;;;8.06;49.47;98526.59;4497977;31;33148;-83
2022/12/15 10:24:53;;;;;;;;;;;;;;;7.31;51.48;98528.13;4497714;31;34143;-83
2022/12/15 10:27:43;;;;;;;;;;;;;;;5.56;56.46;98529.06;4498612;31;34453;-83
2022/12/15 10:30:12;;;;;;;;;;;;;;;6.33;54.54;98529.03;4498904;31;34979;-83
2022/12/15 10:32:49;;;;;;;;;;;;;;;6.57;53.15;98508.00;4497604;31;33795;-82
2022/12/15 10:35:22;;;;;;;;;;;;;;;6.48;54.04;98503.56;4498926;31;33700;-82
2022/12/15 10:37:49;;;;;;;;;;;;;;;6.85;53.26;98503.31;4498685;31;35207;-83
2022/12/15 10:40:18;;;;;;;;;;;;;;;7.54;51.47;98505.28;4498550;31;33953;-83
2022/12/15 10:42:48;;;;;;;;;;;;;;;7.91;50.28;98505.75;4498394;31;33085;-83
2022/12/15 10:45:29;;;;;;;;;;;;;;;8.45;49.06;98512.47;4498762;31;33806;-83
2022/12/15 10:47:57;;;;;;;;;;;;;;;7.99;49.36;98507.59;4498713;31;33875;-83
2022/12/15 10:50:26;;;;;;;;;;;;;;;7.14;51.67;98522.72;4498495;31;33873;-83
2022/12/15 10:52:53;;;;;;;;;;;;;;;7.62;51.10;98521.72;4498437;31;33713;-82
2022/12/15 10:55:26;;;;;;;;;;;;;;;6.93;52.50;98520.66;4498359;31;34996;-82
2022/12/15 10:57:58;;;;;;;;;;;;;;;6.51;53.44;98513.03;4498258;31;33914;-83
2022/12/15 11:00:27;;;;;;;;;;;;;;;7.57;51.35;98516.47;4498409;31;34603;-83
2022/12/15 11:02:54;;;;;;;;;;;;;;;8.02;50.01;98504.16;4499150;31;33495;-82
2022/12/15 11:05:22;;;;;;;;;;;;;;;8.65;48.59;98504.91;4499350;31;33934;-83
2022/12/15 11:07:53;;;;;;;;;;;;;;;8.95;47.79;98506.91;4500520;31;33905;-83
2022/12/15 11:13:17;;;;;;;;;;;;;;;8.83;48.05;98520.59;4500667;31;32965;-83
2022/12/15 11:15:44;;;;;;;;;;;;;;;8.33;48.90;98505.38;4500669;31;34159;-82
2022/12/15 11:18:36;;;;;;;;;;;;;;;9.01;47.55;98512.09;4500479;31;35281;-83
2022/12/15 11:21:15;;;;;;;;;;;;;;;8.46;49.08;98522.78;4500912;31;33837;-83
2022/12/15 11:23:49;;;;;;;;;;;;;;;8.72;48.55;98517.91;4500307;31;33821;-83
2022/12/15 11:26:25;;;;;;;;;;;;;;;9.59;46.58;98509.97;4498898;31;33335;-83
2022/12/15 11:29:13;;;;;;;;;;;;;;;8.43;49.18;98506.41;4499029;31;35088;-83
2022/12/15 11:31:41;;;;;;;;;;;;;;;9.32;47.01;98514.94;4475491;31;33858;-83
2022/12/15 11:34:19;;;;;;;;;;;;;;;8.48;49.07;98515.06;4499199;31;34779;-82
2022/12/15 11:37:05;;;;;;;;;;;;;;;9.01;47.81;98514.69;4499375;31;33965;-83
2022/12/15 11:39:51;;;;;;;;;;;;;;;8.38;49.10;98510.66;4500356;31;34420;-83
2022/12/15 11:42:21;;;;;;;;;;;;;;;8.42;49.72;98515.88;4500041;31;34891;-83
2022/12/15 11:44:55;;;;;;;;;;;;;;;8.26;49.64;98516.53;4499104;31;33352;-83
2022/12/15 11:47:30;;;;;;;;;;;;;;;9.08;48.05;98516.47;4498960;31;33826;-82
2022/12/15 11:50:04;;;;;;;;;;;;;;;9.12;47.95;98528.56;4498489;31;34353;-83
2022/12/15 11:52:40;;;;;;;;;;;;;;;8.33;49.64;98530.34;4499870;31;35028;-82
2022/12/15 11:55:14;;;;;;;;;;;;;;;7.46;52.62;98548.13;4499902;31;33436;-83
2022/12/15 11:57:54;;;;;;;;;;;;;;;7.62;52.15;98537.19;4500049;31;34315;-83
2022/12/15 12:00:22;;;;;;;;;;;;;;;8.42;49.92;98535.66;4498852;31;35063;-82
2022/12/15 12:03:08;;;;;;;;;;;;;;;9.50;46.87;98531.44;4500038;31;34206;-83
2022/12/15 12:05:54;;;;;;;;;;;;;;;8.93;48.49;98537.03;4499704;31;33837;-82
2022/12/15 12:08:37;;;;;;;;;;;;;;;8.52;49.35;98547.81;4499908;31;33815;-82
2022/12/15 12:11:14;;;;;;;;;;;;;;;8.85;48.69;98530.94;4499739;31;34284;-82
2022/12/15 12:14:00;;;;;;;;;;;;;;;8.17;50.28;98529.31;4497288;31;33631;-82
2022/12/15 12:16:37;;;;;;;;;;;;;;;7.50;52.45;98529.25;4499692;31;33151;-82
2022/12/15 12:19:13;;;;;;;;;;;;;;;8.38;50.65;98515.81;4498603;31;34690;-82
2022/12/15 12:21:45;;;;;;;;;;;;;;;8.93;49.36;98516.34;4499834;31;35287;-82
2022/12/15 12:24:29;;;;;;;;;;;;;;;9.25;48.63;98514.91;4499868;31;34928;-84
2022/12/15 12:26:56;;;;;;;;;;;;;;;8.99;49.00;98516.41;4498733;31;33794;-82
2022/12/15 12:29:33;;;;;;;;;;;;;;;9.39;48.00;98514.13;4511637;31;34102;-84
2022/12/15 12:32:03;;;;;;;;;;;;;;;9.76;47.29;98502.28;4515086;31;35007;-82
2022/12/15 12:34:37;;;;;;;;;;;;;;;9.17;48.53;98502.78;4515700;31;36063;-82
2022/12/15 12:37:26;;;;;;;;;;;;;;;9.38;48.09;98507.22;4515620;31;34089;-82
2022/12/15 12:39:55;;;;;;;;;;;;;;;8.79;49.38;98508.50;4514158;31;34714;-83
2022/12/15 12:42:29;;;;;;;;;;;;;;;9.15;48.77;98499.31;4506068;31;34399;-83
2022/12/15 12:44:56;;;;;;;;;;;;;;;9.63;47.84;98498.78;4499866;31;33943;-83
2022/12/15 12:47:26;;;;;;;;;;;;;;;9.79;47.15;98509.22;4499341;31;34218;-82
2022/12/15 12:49:54;;;;;;;;;;;;;;;10.09;46.42;98504.16;4503693;31;34846;-82
2022/12/15 12:52:22;;;;;;;;;;;;;;;10.13;46.35;98503.31;4514113;31;35769;-82
2022/12/15 12:54:52;;;;;;;;;;;;;;;9.99;47.01;98508.44;4511289;31;33936;-82
2022/12/15 12:57:42;;;;;;;;;;;;;;;10.47;46.01;98514.69;4498540;31;33953;-82
2022/12/15 13:00:14;;;;;;;;;;;;;;;10.49;45.59;98514.69;4497166;31;33578;-83
2022/12/15 13:02:52;;;;;;;;;;;;;;;10.70;45.00;98517.34;4514355;31;34408;-82
2022/12/15 13:05:21;;;;;;;;;;;;;;;10.26;46.11;98512.03;4515828;31;33850;-83
2022/12/15 13:07:52;;;;;;;;;;;;;;;9.38;48.37;98522.75;4515742;31;33255;-83
2022/12/15 13:10:20;;;;;;;;;;;;;;;8.61;50.83;98529.84;4515603;31;34247;-82
2022/12/15 13:12:54;;;;;;;;;;;;;;;8.00;52.48;98545.47;4515218;31;34099;-82
2022/12/15 13:15:28;;;;;;;;;;;;;;;8.79;50.58;98544.69;4514048;31;34273;-81
2022/12/15 13:17:59;;;;;;;;;;;;;;;9.09;49.80;98538.03;4515669;31;33597;-81
2022/12/15 13:20:27;;;;;;;;;;;;;;;9.60;48.55;98540.16;4514230;31;33621;-83
2022/12/15 13:22:55;;;;;;;;;;;;;;;9.31;48.63;98539.06;4513797;31;34931;-82
2022/12/15 13:25:25;;;;;;;;;;;;;;;9.61;48.31;98541.00;4515143;31;34094;-82
2022/12/15 13:27:56;;;;;;;;;;;;;;;7.79;53.35;98540.00;4515423;31;33438;-81
2022/12/15 13:30:23;;;;;;;;;;;;;;;8.83;50.83;98535.22;4512274;31;34863;-82
2022/12/15 13:32:52;;;;;;;;;;;;;;;8.38;52.01;98546.81;4512001;31;34355;-83
2022/12/15 13:35:19;;;;;;;;;;;;;;;9.50;49.04;98540.94;4504983;31;34218;-81
2022/12/15 13:37:53;;;;;;;;;;;;;;;8.18;52.44;98552.59;4515042;31;34016;-83
2022/12/15 13:40:23;;;;;;;;;;;;;;;9.02;50.39;98544.87;4514107;31;33726;-82
2022/12/15 13:42:57;;;;;;;;;;;;;;;9.58;48.97;98554.78;4513122;31;34358;-83
2022/12/15 13:45:42;;;;;;;;;;;;;;;9.70;48.67;98551.44;4514537;31;34283;-81
2022/12/15 13:48:19;;;;;;;;;;;;;;;7.91;53.67;98554.78;4514833;31;33021;-83
2022/12/15 13:50:48;;;;;;;;;;;;;;;7.84;53.73;98550.38;4514322;31;34195;-82
2022/12/15 13:53:19;;;;;;;;;;;;;;;9.52;49.38;98539.25;4508678;31;33977;-81
2022/12/15 13:55:51;;;;;;;;;;;;;;;9.87;48.44;98539.44;4497873;31;34272;-82
2022/12/15 13:58:18;;;;;;;;;;;;;;;8.32;52.36;98547.56;4499048;31;33357;-82
2022/12/15 14:00:53;;;;;;;;;;;;;;;8.69;51.79;98550.59;4497715;31;33620;-83
2022/12/15 14:03:24;;;;;;;;;;;;;;;8.67;51.40;98540.22;4498644;31;35170;-82
2022/12/15 14:05:54;;;;;;;;;;;;;;;8.55;52.28;98539.25;4506321;31;34159;-83
2022/12/15 14:08:21;;;;;;;;;;;;;;;8.71;51.66;98547.19;4513831;31;33794;-83
2022/12/15 14:10:53;;;;;;;;;;;;;;;8.48;52.69;98533.12;4514935;31;34325;-84
2022/12/15 14:13:30;;;;;;;;;;;;;;;8.79;51.67;98539.50;4514842;31;34281;-84
2022/12/15 14:16:03;;;;;;;;;;;;;;;8.74;51.44;98536.84;4513411;31;33748;-81
2022/12/15 14:18:32;;;;;;;;;;;;;;;8.97;51.09;98539.66;4513792;31;33293;-82
2022/12/15 14:21:01;;;;;;;;;;;;;;;8.68;52.27;98536.81;4513147;31;34045;-83
2022/12/15 14:23:29;;;;;;;;;;;;;;;7.95;54.42;98531.59;4514611;31;34905;-83
2022/12/15 14:26:12;;;;;;;;;;;;;;;8.65;52.36;98526.44;4514430;31;35160;-82
2022/12/15 14:28:41;;;;;;;;;;;;;;;8.62;52.46;98528.13;4514471;31;33653;-82
2022/12/15 14:31:21;;;;;;;;;;;;;;;8.65;52.03;98528.16;4513516;31;34272;-84
2022/12/15 14:33:52;;;;;;;;;;;;;;;8.90;51.24;98526.66;4514449;31;34203;-83
2022/12/15 14:36:19;;;;;;;;;;;;;;;8.25;53.30;98531.13;4511240;31;33540;-84
2022/12/15 14:38:51;;;;;;;;;;;;;;;8.10;54.08;98535.25;4504453;31;32931;-83
2022/12/15 14:41:20;;;;;;;;;;;;;;;8.20;53.73;98547.41;4514924;31;32708;-83
2022/12/15 14:43:48;;;;;;;;;;;;;;;8.37;53.40;98556.28;4515252;31;35221;-82
2022/12/15 14:46:36;;;;;;;;;;;;;;;9.08;51.60;98542.34;4509988;31;34658;-85
2022/12/15 14:49:03;;;;;;;;;;;;;;;8.62;52.91;98551.38;4514850;31;32732;-86
2022/12/15 14:51:31;;;;;;;;;;;;;;;8.57;52.60;98547.88;4515164;31;34773;-85
2022/12/15 14:53:59;;;;;;;;;;;;;;;8.46;53.14;98540.88;4514837;31;34256;-85
2022/12/15 14:56:27;;;;;;;;;;;;;;;7.55;55.70;98564.62;4516302;31;33897;-85
2022/12/15 14:58:58;;;;;;;;;;;;;;;7.91;54.91;98578.00;4514707;31;32868;-84
2022/12/15 15:01:32;;;;;;;;;;;;;;;6.80;57.93;98567.66;4500753;31;34569;-84
2022/12/15 15:04:03;;;;;;;;;;;;;;;8.08;54.45;98555.88;4501144;31;34228;-86
2022/12/15 15:06:35;;;;;;;;;;;;;;;8.38;53.78;98572.66;4506837;31;34626;-84
2022/12/15 15:09:03;;;;;;;;;;;;;;;8.99;52.16;98563.81;4510531;31;33890;-85
2022/12/15 15:11:32;;;;;;;;;;;;;;;7.36;56.01;98580.66;4498853;31;34190;-83
2022/12/15 15:14:18;;;;;;;;;;;;;;;6.71;58.32;98575.22;4509049;31;34273;-84
2022/12/15 15:16:55;;;;;;;;;;;;;;;7.32;56.52;98584.03;4510226;31;34295;-84
2022/12/15 15:19:23;;;;;;;;;;;;;;;7.62;55.97;98578.47;4504791;31;34390;-84
2022/12/15 15:21:50;;;;;;;;;;;;;;;7.33;56.72;98565.12;4509136;31;34930;-84
2022/12/15 15:24:38;;;;;;;;;;;;;;;7.10;57.66;98557.00;4516112;31;35567;-85
2022/12/15 15:27:25;;;;;;;;;;;;;;;7.40;56.93;98555.78;4503468;31;33738;-84
2022/12/15 15:30:04;;;;;;;;;;;;;;;7.01;57.70;98564.59;4515526;31;33716;-85
2022/12/15 15:32:47;;;;;;;;;;;;;;;7.24;57.39;98560.69;4498273;31;33945;-85
2022/12/15 15:35:14;;;;;;;;;;;;;;;6.80;58.43;98552.19;4503999;31;34439;-86
2022/12/15 15:37:42;;;;;;;;;;;;;;;6.88;58.58;98549.75;4514970;31;35327;-83
2022/12/15 15:40:09;;;;;;;;;;;;;;;7.45;57.31;98551.53;4509427;31;33506;-85
2022/12/15 15:42:36;;;;;;;;;;;;;;;6.33;60.43;98550.47;4503900;31;33450;-85
2022/12/15 15:45:08;;;;;;;;;;;;;;;6.99;59.07;98550.81;4515471;31;34032;-84